sensor_id;sensor_type;location;lat;lon;timestamp;P1;durP1;ratioP1;P2;durP2;ratioP2
39994;SDS011;25686;51.908;10.418;2023-02-22T00:00:11;6.10;;;3.83;;
39994;SDS011;25686;51.908;10.418;2023-02-22T00:02:23;7.80;;;3.80;;
39994;SDS011;25686;51.908;10.418;2023-02-22T00:04:26;8.90;;;4.20;;
39994;SDS011;25686;51.908;10.418;2023-02-22T00:06:27;7.78;;;4.15;;
39994;SDS011;25686;51.908;10.418;2023-02-22T00:08:31;7.25;;;4.20;;
39994;SDS011;25686;51.908;10.418;2023-02-22T00:10:33;8.07;;;4.53;;
39994;SDS011;25686;51.908;10.418;2023-02-22T00:12:34;9.98;;;4.85;;
39994;SDS011;25686;51.908;10.418;2023-02-22T00:14:35;7.35;;;4.53;;
39994;SDS011;25686;51.908;10.418;2023-02-22T00:16:36;8.05;;;4.30;;
39994;SDS011;25686;51.908;10.418;2023-02-22T00:18:37;8.68;;;4.88;;
39994;SDS011;25686;51.908;10.418;2023-02-22T00:20:38;10.70;;;4.72;;
39994;SDS011;25686;51.908;10.418;2023-02-22T00:22:40;8.27;;;4.72;;
39994;SDS011;25686;51.908;10.418;2023-02-22T00:24:42;11.82;;;5.10;;
39994;SDS011;25686;51.908;10.418;2023-02-22T00:26:43;9.20;;;4.97;;
39994;SDS011;25686;51.908;10.418;2023-02-22T00:28:52;9.73;;;5.13;;
39994;SDS011;25686;51.908;10.418;2023-02-22T00:30:53;10.35;;;5.30;;
39994;SDS011;25686;51.908;10.418;2023-02-22T00:32:55;9.30;;;5.05;;
39994;SDS011;25686;51.908;10.418;2023-02-22T00:34:56;10.48;;;4.80;;
39994;SDS011;25686;51.908;10.418;2023-02-22T00:36:57;10.73;;;4.82;;
39994;SDS011;25686;51.908;10.418;2023-02-22T00:39:01;11.32;;;5.18;;
39994;SDS011;25686;51.908;10.418;2023-02-22T00:41:02;12.80;;;5.68;;
39994;SDS011;25686;51.908;10.418;2023-02-22T00:43:03;12.73;;;5.50;;
39994;SDS011;25686;51.908;10.418;2023-02-22T00:45:05;11.27;;;5.28;;
39994;SDS011;25686;51.908;10.418;2023-02-22T00:47:06;14.90;;;5.82;;
39994;SDS011;25686;51.908;10.418;2023-02-22T00:49:07;14.80;;;5.93;;
39994;SDS011;25686;51.908;10.418;2023-02-22T00:51:08;15.32;;;6.70;;
39994;SDS011;25686;51.908;10.418;2023-02-22T00:53:10;13.55;;;6.25;;
39994;SDS011;25686;51.908;10.418;2023-02-22T00:55:19;14.80;;;6.93;;
39994;SDS011;25686;51.908;10.418;2023-02-22T00:57:20;12.85;;;6.25;;
39994;SDS011;25686;51.908;10.418;2023-02-22T00:59:21;16.00;;;7.05;;
39994;SDS011;25686;51.908;10.418;2023-02-22T01:01:22;13.40;;;6.45;;
39994;SDS011;25686;51.908;10.418;2023-02-22T01:03:23;10.90;;;5.50;;
39994;SDS011;25686;51.908;10.418;2023-02-22T01:05:25;11.55;;;5.53;;
39994;SDS011;25686;51.908;10.418;2023-02-22T01:07:26;13.52;;;6.30;;
39994;SDS011;25686;51.908;10.418;2023-02-22T01:09:27;13.57;;;6.60;;
39994;SDS011;25686;51.908;10.418;2023-02-22T01:11:28;13.18;;;5.63;;
39994;SDS011;25686;51.908;10.418;2023-02-22T01:13:30;13.80;;;6.05;;
39994;SDS011;25686;51.908;10.418;2023-02-22T01:15:31;12.48;;;5.93;;
39994;SDS011;25686;51.908;10.418;2023-02-22T01:17:32;11.75;;;5.53;;
39994;SDS011;25686;51.908;10.418;2023-02-22T01:19:33;13.35;;;6.25;;
39994;SDS011;25686;51.908;10.418;2023-02-22T01:21:34;10.52;;;5.55;;
39994;SDS011;25686;51.908;10.418;2023-02-22T01:23:35;11.93;;;5.68;;
39994;SDS011;25686;51.908;10.418;2023-02-22T01:25:36;13.75;;;5.43;;
39994;SDS011;25686;51.908;10.418;2023-02-22T01:27:37;11.52;;;5.07;;
39994;SDS011;25686;51.908;10.418;2023-02-22T01:29:38;11.20;;;5.03;;
39994;SDS011;25686;51.908;10.418;2023-02-22T01:31:40;12.20;;;4.85;;
39994;SDS011;25686;51.908;10.418;2023-02-22T01:33:44;11.57;;;5.20;;
39994;SDS011;25686;51.908;10.418;2023-02-22T01:35:45;10.23;;;4.65;;
39994;SDS011;25686;51.908;10.418;2023-02-22T01:37:47;10.10;;;4.43;;
39994;SDS011;25686;51.908;10.418;2023-02-22T01:39:48;9.63;;;4.47;;
39994;SDS011;25686;51.908;10.418;2023-02-22T01:41:49;10.73;;;4.80;;
39994;SDS011;25686;51.908;10.418;2023-02-22T01:43:52;8.32;;;4.25;;
39994;SDS011;25686;51.908;10.418;2023-02-22T01:46:00;9.52;;;4.10;;
39994;SDS011;25686;51.908;10.418;2023-02-22T01:50:05;8.45;;;4.10;;
39994;SDS011;25686;51.908;10.418;2023-02-22T01:52:11;10.70;;;4.13;;
39994;SDS011;25686;51.908;10.418;2023-02-22T01:56:15;12.77;;;4.20;;
39994;SDS011;25686;51.908;10.418;2023-02-22T01:58:16;10.50;;;3.90;;
39994;SDS011;25686;51.908;10.418;2023-02-22T02:00:18;7.00;;;3.63;;
39994;SDS011;25686;51.908;10.418;2023-02-22T02:02:21;8.18;;;3.45;;
39994;SDS011;25686;51.908;10.418;2023-02-22T02:04:24;13.30;;;3.80;;
39994;SDS011;25686;51.908;10.418;2023-02-22T02:06:25;8.40;;;3.63;;
39994;SDS011;25686;51.908;10.418;2023-02-22T02:10:31;8.60;;;3.80;;
39994;SDS011;25686;51.908;10.418;2023-02-22T02:12:33;8.30;;;3.50;;
39994;SDS011;25686;51.908;10.418;2023-02-22T02:14:36;7.65;;;3.55;;
39994;SDS011;25686;51.908;10.418;2023-02-22T02:16:43;9.63;;;3.90;;
39994;SDS011;25686;51.908;10.418;2023-02-22T02:18:44;8.18;;;3.10;;
39994;SDS011;25686;51.908;10.418;2023-02-22T02:32:13;4.35;;;2.00;;
39994;SDS011;25686;51.908;10.418;2023-02-22T02:34:24;3.17;;;1.77;;
39994;SDS011;25686;51.908;10.418;2023-02-22T02:36:29;4.40;;;2.08;;
39994;SDS011;25686;51.908;10.418;2023-02-22T02:38:32;3.70;;;1.88;;
39994;SDS011;25686;51.908;10.418;2023-02-22T02:40:38;6.30;;;2.20;;
39994;SDS011;25686;51.908;10.418;2023-02-22T02:42:41;3.00;;;1.60;;
39994;SDS011;25686;51.908;10.418;2023-02-22T02:44:45;3.53;;;1.67;;
39994;SDS011;25686;51.908;10.418;2023-02-22T02:46:51;3.45;;;1.77;;
39994;SDS011;25686;51.908;10.418;2023-02-22T02:48:59;2.67;;;1.38;;
39994;SDS011;25686;51.908;10.418;2023-02-22T02:51:01;2.17;;;1.50;;
39994;SDS011;25686;51.908;10.418;2023-02-22T02:53:04;2.15;;;1.55;;
39994;SDS011;25686;51.908;10.418;2023-02-22T02:55:06;3.38;;;1.58;;
39994;SDS011;25686;51.908;10.418;2023-02-22T02:57:10;2.60;;;1.40;;
39994;SDS011;25686;51.908;10.418;2023-02-22T02:59:24;4.30;;;2.00;;
39994;SDS011;25686;51.908;10.418;2023-02-22T03:03:43;3.75;;;1.80;;
39994;SDS011;25686;51.908;10.418;2023-02-22T03:07:54;2.05;;;1.40;;
39994;SDS011;25686;51.908;10.418;2023-02-22T03:12:09;3.15;;;1.90;;
39994;SDS011;25686;51.908;10.418;2023-02-22T03:16:26;1.92;;;1.17;;
39994;SDS011;25686;51.908;10.418;2023-02-22T03:20:51;3.00;;;1.52;;
39994;SDS011;25686;51.908;10.418;2023-02-22T03:22:55;2.65;;;1.45;;
39994;SDS011;25686;51.908;10.418;2023-02-22T03:27:17;2.80;;;1.38;;
39994;SDS011;25686;51.908;10.418;2023-02-22T03:29:22;4.82;;;1.70;;
39994;SDS011;25686;51.908;10.418;2023-02-22T03:31:25;2.65;;;1.30;;
39994;SDS011;25686;51.908;10.418;2023-02-22T03:34:01;3.45;;;1.40;;
39994;SDS011;25686;51.908;10.418;2023-02-22T03:35:56;2.17;;;1.48;;
39994;SDS011;25686;51.908;10.418;2023-02-22T03:37:59;1.48;;;1.15;;
39994;SDS011;25686;51.908;10.418;2023-02-22T03:40:02;2.85;;;1.55;;
39994;SDS011;25686;51.908;10.418;2023-02-22T03:42:13;2.20;;;1.42;;
39994;SDS011;25686;51.908;10.418;2023-02-22T03:44:17;2.47;;;1.42;;
39994;SDS011;25686;51.908;10.418;2023-02-22T03:46:20;3.58;;;1.27;;
39994;SDS011;25686;51.908;10.418;2023-02-22T03:48:27;2.83;;;1.77;;
39994;SDS011;25686;51.908;10.418;2023-02-22T03:50:34;2.28;;;1.55;;
39994;SDS011;25686;51.908;10.418;2023-02-22T03:52:36;2.47;;;1.52;;
39994;SDS011;25686;51.908;10.418;2023-02-22T03:54:37;2.20;;;1.45;;
39994;SDS011;25686;51.908;10.418;2023-02-22T03:56:40;2.55;;;1.65;;
39994;SDS011;25686;51.908;10.418;2023-02-22T03:58:46;3.65;;;1.80;;
39994;SDS011;25686;51.908;10.418;2023-02-22T04:00:47;3.00;;;2.13;;
39994;SDS011;25686;51.908;10.418;2023-02-22T04:02:51;3.38;;;1.80;;
39994;SDS011;25686;51.908;10.418;2023-02-22T04:04:52;4.15;;;1.80;;
39994;SDS011;25686;51.908;10.418;2023-02-22T04:06:53;3.33;;;1.90;;
39994;SDS011;25686;51.908;10.418;2023-02-22T04:08:54;2.60;;;2.00;;
39994;SDS011;25686;51.908;10.418;2023-02-22T04:10:55;4.53;;;2.20;;
39994;SDS011;25686;51.908;10.418;2023-02-22T04:12:57;3.33;;;2.13;;
39994;SDS011;25686;51.908;10.418;2023-02-22T04:14:58;6.15;;;2.70;;
39994;SDS011;25686;51.908;10.418;2023-02-22T04:16:59;3.75;;;2.30;;
39994;SDS011;25686;51.908;10.418;2023-02-22T04:19:00;4.40;;;2.40;;
39994;SDS011;25686;51.908;10.418;2023-02-22T04:21:01;7.17;;;2.33;;
39994;SDS011;25686;51.908;10.418;2023-02-22T04:23:02;4.77;;;2.40;;
39994;SDS011;25686;51.908;10.418;2023-02-22T04:25:03;5.65;;;2.80;;
39994;SDS011;25686;51.908;10.418;2023-02-22T04:27:04;6.47;;;2.80;;
39994;SDS011;25686;51.908;10.418;2023-02-22T04:29:05;7.07;;;3.28;;
39994;SDS011;25686;51.908;10.418;2023-02-22T04:31:07;7.22;;;3.40;;
39994;SDS011;25686;51.908;10.418;2023-02-22T04:33:08;7.33;;;3.70;;
39994;SDS011;25686;51.908;10.418;2023-02-22T04:35:09;6.30;;;3.73;;
39994;SDS011;25686;51.908;10.418;2023-02-22T04:37:10;9.07;;;3.70;;
39994;SDS011;25686;51.908;10.418;2023-02-22T04:39:11;6.83;;;4.03;;
39994;SDS011;25686;51.908;10.418;2023-02-22T04:41:12;5.97;;;3.50;;
39994;SDS011;25686;51.908;10.418;2023-02-22T04:43:13;8.50;;;3.67;;
39994;SDS011;25686;51.908;10.418;2023-02-22T04:45:14;6.30;;;4.03;;
39994;SDS011;25686;51.908;10.418;2023-02-22T04:47:15;7.00;;;4.45;;
39994;SDS011;25686;51.908;10.418;2023-02-22T04:49:16;7.77;;;3.73;;
39994;SDS011;25686;51.908;10.418;2023-02-22T04:51:17;7.57;;;3.70;;
39994;SDS011;25686;51.908;10.418;2023-02-22T04:53:19;7.53;;;3.53;;
39994;SDS011;25686;51.908;10.418;2023-02-22T04:55:20;10.90;;;4.07;;
39994;SDS011;25686;51.908;10.418;2023-02-22T04:57:21;5.27;;;3.13;;
39994;SDS011;25686;51.908;10.418;2023-02-22T04:59:22;7.97;;;3.50;;
39994;SDS011;25686;51.908;10.418;2023-02-22T05:01:23;5.80;;;2.97;;
39994;SDS011;25686;51.908;10.418;2023-02-22T05:03:24;6.90;;;3.10;;
39994;SDS011;25686;51.908;10.418;2023-02-22T05:05:25;9.10;;;3.50;;
39994;SDS011;25686;51.908;10.418;2023-02-22T05:07:26;7.30;;;3.67;;
39994;SDS011;25686;51.908;10.418;2023-02-22T05:09:27;7.90;;;4.10;;
39994;SDS011;25686;51.908;10.418;2023-02-22T05:11:28;8.50;;;4.53;;
39994;SDS011;25686;51.908;10.418;2023-02-22T05:13:29;9.30;;;4.60;;
39994;SDS011;25686;51.908;10.418;2023-02-22T05:15:30;9.55;;;4.72;;
39994;SDS011;25686;51.908;10.418;2023-02-22T05:17:32;8.87;;;4.80;;
39994;SDS011;25686;51.908;10.418;2023-02-22T05:19:32;9.23;;;4.70;;
39994;SDS011;25686;51.908;10.418;2023-02-22T05:21:33;8.37;;;4.87;;
39994;SDS011;25686;51.908;10.418;2023-02-22T05:23:34;11.67;;;5.50;;
39994;SDS011;25686;51.908;10.418;2023-02-22T05:25:35;13.17;;;5.07;;
39994;SDS011;25686;51.908;10.418;2023-02-22T05:27:37;13.07;;;4.77;;
39994;SDS011;25686;51.908;10.418;2023-02-22T05:29:38;8.43;;;4.50;;
39994;SDS011;25686;51.908;10.418;2023-02-22T05:31:39;15.13;;;5.70;;
39994;SDS011;25686;51.908;10.418;2023-02-22T05:33:40;8.20;;;4.80;;
39994;SDS011;25686;51.908;10.418;2023-02-22T05:35:42;9.37;;;5.07;;
39994;SDS011;25686;51.908;10.418;2023-02-22T05:37:43;10.63;;;4.93;;
39994;SDS011;25686;51.908;10.418;2023-02-22T05:39:44;10.63;;;5.50;;
39994;SDS011;25686;51.908;10.418;2023-02-22T05:41:45;11.10;;;5.50;;
39994;SDS011;25686;51.908;10.418;2023-02-22T05:43:46;11.30;;;5.47;;
39994;SDS011;25686;51.908;10.418;2023-02-22T05:45:47;12.03;;;6.13;;
39994;SDS011;25686;51.908;10.418;2023-02-22T05:47:48;12.73;;;6.00;;
39994;SDS011;25686;51.908;10.418;2023-02-22T05:49:49;9.17;;;5.40;;
39994;SDS011;25686;51.908;10.418;2023-02-22T05:51:50;12.77;;;5.57;;
39994;SDS011;25686;51.908;10.418;2023-02-22T05:53:51;11.43;;;5.57;;
39994;SDS011;25686;51.908;10.418;2023-02-22T05:55:52;12.07;;;5.63;;
39994;SDS011;25686;51.908;10.418;2023-02-22T05:57:53;12.97;;;5.93;;
39994;SDS011;25686;51.908;10.418;2023-02-22T05:59:54;12.60;;;5.47;;
39994;SDS011;25686;51.908;10.418;2023-02-22T06:01:55;12.90;;;6.03;;
39994;SDS011;25686;51.908;10.418;2023-02-22T06:03:56;13.60;;;6.30;;
39994;SDS011;25686;51.908;10.418;2023-02-22T06:05:57;12.83;;;6.37;;
39994;SDS011;25686;51.908;10.418;2023-02-22T06:07:58;15.07;;;6.23;;
39994;SDS011;25686;51.908;10.418;2023-02-22T06:09:59;14.13;;;6.40;;
39994;SDS011;25686;51.908;10.418;2023-02-22T06:12:00;13.63;;;6.40;;
39994;SDS011;25686;51.908;10.418;2023-02-22T06:14:01;13.67;;;6.07;;
39994;SDS011;25686;51.908;10.418;2023-02-22T06:16:03;13.43;;;6.13;;
39994;SDS011;25686;51.908;10.418;2023-02-22T06:18:04;11.10;;;6.00;;
39994;SDS011;25686;51.908;10.418;2023-02-22T06:20:05;12.73;;;6.00;;
39994;SDS011;25686;51.908;10.418;2023-02-22T06:22:07;11.03;;;5.90;;
39994;SDS011;25686;51.908;10.418;2023-02-22T06:24:08;10.57;;;5.97;;
39994;SDS011;25686;51.908;10.418;2023-02-22T06:26:09;13.20;;;5.63;;
39994;SDS011;25686;51.908;10.418;2023-02-22T06:28:10;14.67;;;6.10;;
39994;SDS011;25686;51.908;10.418;2023-02-22T06:30:11;14.13;;;6.03;;
39994;SDS011;25686;51.908;10.418;2023-02-22T06:32:13;14.07;;;6.03;;
39994;SDS011;25686;51.908;10.418;2023-02-22T06:34:14;12.43;;;6.20;;
39994;SDS011;25686;51.908;10.418;2023-02-22T06:36:15;14.43;;;6.60;;
39994;SDS011;25686;51.908;10.418;2023-02-22T06:38:19;13.73;;;6.80;;
39994;SDS011;25686;51.908;10.418;2023-02-22T06:40:21;16.23;;;7.23;;
39994;SDS011;25686;51.908;10.418;2023-02-22T06:42:22;20.47;;;7.17;;
39994;SDS011;25686;51.908;10.418;2023-02-22T06:44:23;15.53;;;7.47;;
39994;SDS011;25686;51.908;10.418;2023-02-22T06:46:24;14.97;;;7.27;;
39994;SDS011;25686;51.908;10.418;2023-02-22T06:48:25;14.40;;;6.50;;
39994;SDS011;25686;51.908;10.418;2023-02-22T06:50:27;15.70;;;7.47;;
39994;SDS011;25686;51.908;10.418;2023-02-22T06:52:28;14.03;;;7.30;;
39994;SDS011;25686;51.908;10.418;2023-02-22T06:54:29;14.97;;;8.20;;
39994;SDS011;25686;51.908;10.418;2023-02-22T06:56:30;19.73;;;8.27;;
39994;SDS011;25686;51.908;10.418;2023-02-22T06:58:31;14.67;;;7.23;;
39994;SDS011;25686;51.908;10.418;2023-02-22T07:00:32;15.32;;;6.70;;
39994;SDS011;25686;51.908;10.418;2023-02-22T07:02:33;15.32;;;7.65;;
39994;SDS011;25686;51.908;10.418;2023-02-22T07:04:34;11.48;;;6.22;;
39994;SDS011;25686;51.908;10.418;2023-02-22T07:06:35;12.55;;;6.20;;
39994;SDS011;25686;51.908;10.418;2023-02-22T07:08:36;13.43;;;6.22;;
39994;SDS011;25686;51.908;10.418;2023-02-22T07:10:37;11.00;;;6.13;;
39994;SDS011;25686;51.908;10.418;2023-02-22T07:12:39;12.27;;;6.10;;
39994;SDS011;25686;51.908;10.418;2023-02-22T07:14:40;13.88;;;6.63;;
39994;SDS011;25686;51.908;10.418;2023-02-22T07:16:41;14.82;;;5.43;;
39994;SDS011;25686;51.908;10.418;2023-02-22T07:18:42;10.23;;;5.20;;
39994;SDS011;25686;51.908;10.418;2023-02-22T07:20:43;9.80;;;5.70;;
39994;SDS011;25686;51.908;10.418;2023-02-22T07:22:44;11.25;;;5.68;;
39994;SDS011;25686;51.908;10.418;2023-02-22T07:24:44;14.43;;;5.80;;
39994;SDS011;25686;51.908;10.418;2023-02-22T07:26:46;10.10;;;5.75;;
39994;SDS011;25686;51.908;10.418;2023-02-22T07:28:48;11.32;;;5.53;;
39994;SDS011;25686;51.908;10.418;2023-02-22T07:30:49;9.40;;;5.38;;
39994;SDS011;25686;51.908;10.418;2023-02-22T07:32:51;9.77;;;5.03;;
39994;SDS011;25686;51.908;10.418;2023-02-22T07:34:52;10.63;;;5.45;;
39994;SDS011;25686;51.908;10.418;2023-02-22T07:36:53;11.60;;;5.25;;
39994;SDS011;25686;51.908;10.418;2023-02-22T07:38:54;11.30;;;5.15;;
39994;SDS011;25686;51.908;10.418;2023-02-22T07:40:55;8.25;;;5.05;;
39994;SDS011;25686;51.908;10.418;2023-02-22T07:42:57;6.90;;;4.32;;
39994;SDS011;25686;51.908;10.418;2023-02-22T07:44:59;7.72;;;4.45;;
39994;SDS011;25686;51.908;10.418;2023-02-22T07:47:00;10.60;;;5.05;;
39994;SDS011;25686;51.908;10.418;2023-02-22T07:49:01;6.78;;;4.50;;
39994;SDS011;25686;51.908;10.418;2023-02-22T07:51:02;11.23;;;5.13;;
39994;SDS011;25686;51.908;10.418;2023-02-22T07:53:04;8.15;;;5.25;;
39994;SDS011;25686;51.908;10.418;2023-02-22T07:55:05;10.48;;;4.90;;
39994;SDS011;25686;51.908;10.418;2023-02-22T07:57:06;7.95;;;4.70;;
39994;SDS011;25686;51.908;10.418;2023-02-22T07:59:07;7.03;;;4.78;;
39994;SDS011;25686;51.908;10.418;2023-02-22T08:01:08;9.05;;;4.80;;
39994;SDS011;25686;51.908;10.418;2023-02-22T08:03:10;8.60;;;5.10;;
39994;SDS011;25686;51.908;10.418;2023-02-22T08:05:12;7.13;;;4.88;;
39994;SDS011;25686;51.908;10.418;2023-02-22T08:07:13;8.38;;;5.43;;
39994;SDS011;25686;51.908;10.418;2023-02-22T08:09:14;7.78;;;5.00;;
39994;SDS011;25686;51.908;10.418;2023-02-22T08:11:15;7.70;;;4.97;;
39994;SDS011;25686;51.908;10.418;2023-02-22T08:13:17;8.68;;;5.25;;
39994;SDS011;25686;51.908;10.418;2023-02-22T08:15:28;8.77;;;5.80;;
39994;SDS011;25686;51.908;10.418;2023-02-22T08:17:29;8.00;;;5.43;;
39994;SDS011;25686;51.908;10.418;2023-02-22T08:19:30;10.07;;;5.82;;
39994;SDS011;25686;51.908;10.418;2023-02-22T08:21:31;9.40;;;5.85;;
39994;SDS011;25686;51.908;10.418;2023-02-22T08:23:32;7.15;;;5.50;;
39994;SDS011;25686;51.908;10.418;2023-02-22T08:25:33;7.55;;;5.60;;
39994;SDS011;25686;51.908;10.418;2023-02-22T08:27:34;10.20;;;6.00;;
39994;SDS011;25686;51.908;10.418;2023-02-22T08:29:35;11.35;;;5.88;;
39994;SDS011;25686;51.908;10.418;2023-02-22T08:31:36;9.88;;;5.60;;
39994;SDS011;25686;51.908;10.418;2023-02-22T08:33:37;10.00;;;6.05;;
39994;SDS011;25686;51.908;10.418;2023-02-22T08:35:38;10.45;;;5.80;;
39994;SDS011;25686;51.908;10.418;2023-02-22T08:37:43;12.98;;;6.55;;
39994;SDS011;25686;51.908;10.418;2023-02-22T08:39:44;8.68;;;5.32;;
39994;SDS011;25686;51.908;10.418;2023-02-22T08:41:45;9.70;;;5.78;;
39994;SDS011;25686;51.908;10.418;2023-02-22T08:43:46;8.70;;;6.13;;
39994;SDS011;25686;51.908;10.418;2023-02-22T08:45:47;9.65;;;6.35;;
39994;SDS011;25686;51.908;10.418;2023-02-22T08:47:49;8.05;;;5.85;;
39994;SDS011;25686;51.908;10.418;2023-02-22T08:49:50;9.90;;;5.68;;
39994;SDS011;25686;51.908;10.418;2023-02-22T08:51:51;10.63;;;6.32;;
39994;SDS011;25686;51.908;10.418;2023-02-22T08:53:52;9.48;;;6.03;;
39994;SDS011;25686;51.908;10.418;2023-02-22T08:55:53;7.82;;;5.93;;
39994;SDS011;25686;51.908;10.418;2023-02-22T08:57:54;9.23;;;6.60;;
39994;SDS011;25686;51.908;10.418;2023-02-22T08:59:55;9.27;;;6.40;;
39994;SDS011;25686;51.908;10.418;2023-02-22T09:01:56;9.95;;;6.35;;
39994;SDS011;25686;51.908;10.418;2023-02-22T09:03:57;8.02;;;6.28;;
39994;SDS011;25686;51.908;10.418;2023-02-22T09:05:58;7.25;;;5.80;;
39994;SDS011;25686;51.908;10.418;2023-02-22T09:07:59;9.25;;;6.03;;
39994;SDS011;25686;51.908;10.418;2023-02-22T09:10:00;6.70;;;5.30;;
39994;SDS011;25686;51.908;10.418;2023-02-22T09:12:02;7.43;;;5.60;;
39994;SDS011;25686;51.908;10.418;2023-02-22T09:14:03;5.18;;;4.65;;
39994;SDS011;25686;51.908;10.418;2023-02-22T09:16:04;8.20;;;4.80;;
39994;SDS011;25686;51.908;10.418;2023-02-22T09:18:07;7.18;;;5.13;;
39994;SDS011;25686;51.908;10.418;2023-02-22T09:20:08;8.00;;;5.25;;
39994;SDS011;25686;51.908;10.418;2023-02-22T09:22:11;8.32;;;6.45;;
39994;SDS011;25686;51.908;10.418;2023-02-22T09:24:12;10.70;;;5.18;;
39994;SDS011;25686;51.908;10.418;2023-02-22T09:26:13;8.80;;;5.63;;
39994;SDS011;25686;51.908;10.418;2023-02-22T09:28:15;8.23;;;5.45;;
39994;SDS011;25686;51.908;10.418;2023-02-22T09:30:29;8.90;;;5.40;;
39994;SDS011;25686;51.908;10.418;2023-02-22T09:32:33;5.75;;;4.93;;
39994;SDS011;25686;51.908;10.418;2023-02-22T09:34:36;6.25;;;5.00;;
39994;SDS011;25686;51.908;10.418;2023-02-22T09:36:37;6.60;;;5.18;;
39994;SDS011;25686;51.908;10.418;2023-02-22T09:38:38;5.80;;;5.15;;
39994;SDS011;25686;51.908;10.418;2023-02-22T09:40:40;6.15;;;4.72;;
39994;SDS011;25686;51.908;10.418;2023-02-22T09:42:49;6.40;;;4.82;;
39994;SDS011;25686;51.908;10.418;2023-02-22T09:46:59;7.50;;;4.45;;
39994;SDS011;25686;51.908;10.418;2023-02-22T09:51:09;6.72;;;4.18;;
39994;SDS011;25686;51.908;10.418;2023-02-22T09:57:34;8.13;;;4.20;;
39994;SDS011;25686;51.908;10.418;2023-02-22T09:59:40;6.60;;;4.13;;
39994;SDS011;25686;51.908;10.418;2023-02-22T10:01:46;4.57;;;3.70;;
39994;SDS011;25686;51.908;10.418;2023-02-22T10:03:57;6.00;;;3.67;;
39994;SDS011;25686;51.908;10.418;2023-02-22T10:06:02;4.80;;;4.05;;
39994;SDS011;25686;51.908;10.418;2023-02-22T10:08:07;5.47;;;3.70;;
39994;SDS011;25686;51.908;10.418;2023-02-22T10:10:18;6.63;;;3.88;;
39994;SDS011;25686;51.908;10.418;2023-02-22T10:12:32;4.20;;;3.80;;
39994;SDS011;25686;51.908;10.418;2023-02-22T10:14:41;7.00;;;3.88;;
39994;SDS011;25686;51.908;10.418;2023-02-22T10:16:52;7.25;;;3.97;;
39994;SDS011;25686;51.908;10.418;2023-02-22T10:25:29;5.80;;;3.85;;
39994;SDS011;25686;51.908;10.418;2023-02-22T10:27:36;8.65;;;4.47;;
39994;SDS011;25686;51.908;10.418;2023-02-22T10:29:39;4.53;;;3.97;;
39994;SDS011;25686;51.908;10.418;2023-02-22T10:31:43;7.10;;;5.10;;
39994;SDS011;25686;51.908;10.418;2023-02-22T10:33:46;6.00;;;4.47;;
39994;SDS011;25686;51.908;10.418;2023-02-22T10:35:47;6.32;;;4.70;;
39994;SDS011;25686;51.908;10.418;2023-02-22T10:42:11;6.85;;;5.60;;
39994;SDS011;25686;51.908;10.418;2023-02-22T10:44:12;5.65;;;4.97;;
39994;SDS011;25686;51.908;10.418;2023-02-22T10:46:16;5.50;;;4.97;;
39994;SDS011;25686;51.908;10.418;2023-02-22T10:48:18;5.75;;;4.95;;
39994;SDS011;25686;51.908;10.418;2023-02-22T10:50:20;5.78;;;5.18;;
39994;SDS011;25686;51.908;10.418;2023-02-22T10:52:29;5.82;;;5.22;;
39994;SDS011;25686;51.908;10.418;2023-02-22T10:54:33;7.80;;;5.75;;
39994;SDS011;25686;51.908;10.418;2023-02-22T10:56:36;5.95;;;5.32;;
39994;SDS011;25686;51.908;10.418;2023-02-22T10:58:48;8.38;;;6.25;;
39994;SDS011;25686;51.908;10.418;2023-02-22T11:00:49;6.60;;;5.28;;
39994;SDS011;25686;51.908;10.418;2023-02-22T11:02:51;9.07;;;5.47;;
39994;SDS011;25686;51.908;10.418;2023-02-22T11:04:54;9.27;;;6.72;;
39994;SDS011;25686;51.908;10.418;2023-02-22T11:07:09;9.20;;;6.65;;
39994;SDS011;25686;51.908;10.418;2023-02-22T11:09:17;8.27;;;6.43;;
39994;SDS011;25686;51.908;10.418;2023-02-22T11:11:22;8.50;;;6.60;;
39994;SDS011;25686;51.908;10.418;2023-02-22T11:13:31;7.95;;;5.90;;
39994;SDS011;25686;51.908;10.418;2023-02-22T11:15:33;7.85;;;6.05;;
39994;SDS011;25686;51.908;10.418;2023-02-22T11:17:34;9.57;;;6.68;;
39994;SDS011;25686;51.908;10.418;2023-02-22T11:19:36;9.60;;;6.28;;
39994;SDS011;25686;51.908;10.418;2023-02-22T11:21:38;9.02;;;6.80;;
39994;SDS011;25686;51.908;10.418;2023-02-22T11:23:40;8.95;;;6.22;;
39994;SDS011;25686;51.908;10.418;2023-02-22T11:25:41;9.32;;;5.80;;
39994;SDS011;25686;51.908;10.418;2023-02-22T11:27:43;8.43;;;6.18;;
39994;SDS011;25686;51.908;10.418;2023-02-22T11:29:45;7.88;;;5.68;;
39994;SDS011;25686;51.908;10.418;2023-02-22T11:31:49;7.60;;;5.85;;
39994;SDS011;25686;51.908;10.418;2023-02-22T11:33:54;9.52;;;6.40;;
39994;SDS011;25686;51.908;10.418;2023-02-22T11:35:58;9.93;;;6.03;;
39994;SDS011;25686;51.908;10.418;2023-02-22T11:38:09;11.38;;;6.30;;
39994;SDS011;25686;51.908;10.418;2023-02-22T11:40:12;8.68;;;6.25;;
39994;SDS011;25686;51.908;10.418;2023-02-22T11:42:25;12.07;;;5.80;;
39994;SDS011;25686;51.908;10.418;2023-02-22T11:44:31;9.23;;;6.35;;
39994;SDS011;25686;51.908;10.418;2023-02-22T11:46:33;11.63;;;5.47;;
39994;SDS011;25686;51.908;10.418;2023-02-22T11:48:37;10.68;;;6.28;;
39994;SDS011;25686;51.908;10.418;2023-02-22T11:50:44;10.00;;;5.93;;
39994;SDS011;25686;51.908;10.418;2023-02-22T11:53:02;12.52;;;5.47;;
39994;SDS011;25686;51.908;10.418;2023-02-22T11:55:07;9.18;;;6.35;;
39994;SDS011;25686;51.908;10.418;2023-02-22T12:03:36;11.27;;;6.45;;
39994;SDS011;25686;51.908;10.418;2023-02-22T12:08:11;7.93;;;4.10;;
39994;SDS011;25686;51.908;10.418;2023-02-22T12:12:27;5.15;;;3.30;;
39994;SDS011;25686;51.908;10.418;2023-02-22T12:14:54;11.73;;;3.10;;
39994;SDS011;25686;51.908;10.418;2023-02-22T12:21:14;7.97;;;3.10;;
39994;SDS011;25686;51.908;10.418;2023-02-22T12:25:24;4.22;;;2.72;;
39994;SDS011;25686;51.908;10.418;2023-02-22T12:27:30;4.38;;;2.70;;
39994;SDS011;25686;51.908;10.418;2023-02-22T12:29:35;3.70;;;2.70;;
39994;SDS011;25686;51.908;10.418;2023-02-22T12:31:44;2.85;;;2.38;;
39994;SDS011;25686;51.908;10.418;2023-02-22T12:35:54;6.10;;;2.47;;
39994;SDS011;25686;51.908;10.418;2023-02-22T12:41:58;3.50;;;2.00;;
39994;SDS011;25686;51.908;10.418;2023-02-22T12:44:03;3.60;;;2.38;;
39994;SDS011;25686;51.908;10.418;2023-02-22T12:46:10;3.30;;;2.30;;
39994;SDS011;25686;51.908;10.418;2023-02-22T12:50:52;6.15;;;2.50;;
39994;SDS011;25686;51.908;10.418;2023-02-22T12:52:56;3.30;;;2.15;;
39994;SDS011;25686;51.908;10.418;2023-02-22T12:55:08;4.75;;;2.50;;
39994;SDS011;25686;51.908;10.418;2023-02-22T12:57:12;3.83;;;2.35;;
39994;SDS011;25686;51.908;10.418;2023-02-22T12:59:28;4.93;;;2.47;;
39994;SDS011;25686;51.908;10.418;2023-02-22T13:01:33;3.60;;;2.03;;
39994;SDS011;25686;51.908;10.418;2023-02-22T13:03:36;3.90;;;1.98;;
39994;SDS011;25686;51.908;10.418;2023-02-22T13:05:38;3.50;;;2.15;;
39994;SDS011;25686;51.908;10.418;2023-02-22T13:14:06;4.65;;;2.08;;
39994;SDS011;25686;51.908;10.418;2023-02-22T13:16:31;3.78;;;2.05;;
39994;SDS011;25686;51.908;10.418;2023-02-22T13:21:07;3.50;;;2.20;;
39994;SDS011;25686;51.908;10.418;2023-02-22T13:25:20;3.80;;;2.20;;
39994;SDS011;25686;51.908;10.418;2023-02-22T13:27:26;2.38;;;2.10;;
39994;SDS011;25686;51.908;10.418;2023-02-22T13:29:31;2.75;;;2.05;;
39994;SDS011;25686;51.908;10.418;2023-02-22T13:31:55;3.58;;;2.05;;
39994;SDS011;25686;51.908;10.418;2023-02-22T13:34:07;3.20;;;1.70;;